Time;durP1;ratioP1;P1;durP2;ratioP2;P2;SDS_P1;SDS_P2;PMS_P1;PMS_P2;Temp;Humidity;BMP_temperature;BMP_pressure;BME280_temperature;BME280_humidity;BME280_pressure;Samples;Min_cycle;Max_cycle;Signal;HPM_P1;HPM_P2
2021/01/10 00:00:04;;;;;;;48.80;19.42;;;;;;;4.27;83.28;101279.00;8718212;33;20152;-72
2021/01/10 00:05:10;;;;;;;46.00;18.80;;;;;;;4.32;82.90;101270.97;8719661;33;21169;-72
2021/01/10 00:10:14;;;;;;;43.90;17.38;;;;;;;4.24;82.73;101266.72;8719048;33;20185;-72
2021/01/10 00:15:19;;;;;;;37.37;18.53;;;;;;;4.17;82.75;101259.88;8718114;33;20748;-72
2021/01/10 00:20:22;;;;;;;44.83;19.65;;;;;;;4.19;82.91;101246.59;8718211;33;20330;-72
2021/01/10 00:25:25;;;;;;;49.10;20.43;;;;;;;4.17;82.49;101265.19;8718979;33;20188;-71
2021/01/10 00:30:28;;;;;;;43.90;19.93;;;;;;;4.10;82.76;101258.28;8717922;33;20183;-72
2021/01/10 00:35:31;;;;;;;42.20;16.60;;;;;;;4.12;82.72;101255.63;8716887;33;20183;-70
2021/01/10 00:40:33;;;;;;;45.97;18.93;;;;;;;4.15;82.83;101260.84;8716428;33;20171;-72
2021/01/10 00:45:38;;;;;;;45.93;18.03;;;;;;;4.19;82.67;101263.34;8718075;33;20531;-73
2021/01/10 00:50:40;;;;;;;43.35;18.98;;;;;;;4.10;82.34;101266.22;8717830;33;20715;-73
2021/01/10 00:55:45;;;;;;;50.30;19.03;;;;;;;4.09;82.39;101263.66;8715825;33;20662;-72
2021/01/10 01:00:49;;;;;;;47.83;17.67;;;;;;;4.04;82.46;101266.41;8715838;33;20187;-72
2021/01/10 01:05:51;;;;;;;50.63;17.23;;;;;;;3.99;82.54;101269.16;8717546;33;20202;-73
2021/01/10 01:10:54;;;;;;;39.55;16.85;;;;;;;3.96;82.61;101274.53;8715686;33;20236;-71
2021/01/10 01:15:57;;;;;;;47.17;19.63;;;;;;;4.11;82.10;101261.81;8717206;33;20194;-72
2021/01/10 01:21:00;;;;;;;45.60;18.20;;;;;;;4.06;81.99;101261.94;8717000;33;20174;-73
2021/01/10 01:26:02;;;;;;;50.65;20.20;;;;;;;4.15;82.21;101266.97;8716440;33;20593;-73
2021/01/10 01:31:06;;;;;;;51.63;20.27;;;;;;;4.22;82.47;101280.91;8716816;33;20252;-72
2021/01/10 01:36:14;;;;;;;46.67;18.40;;;;;;;4.28;82.17;101278.13;8716685;33;20259;-72
2021/01/10 01:41:16;;;;;;;51.47;19.00;;;;;;;4.35;82.45;101278.81;8722496;33;20212;-72
2021/01/10 01:46:28;;;;;;;52.90;20.17;;;;;;;4.34;82.11;101293.81;8775574;33;20536;-72
2021/01/10 01:51:31;;;;;;;50.57;19.07;;;;;;;4.45;82.62;101293.53;8774496;33;20701;-73
2021/01/10 01:56:35;;;;;;;52.75;19.98;;;;;;;4.48;82.49;101297.88;8774936;33;20187;-71
2021/01/10 02:01:39;;;;;;;55.38;20.50;;;;;;;4.50;82.63;101296.94;8774915;33;20148;-72
2021/01/10 02:06:54;;;;;;;50.22;18.50;;;;;;;4.47;82.43;101299.66;8775030;33;20187;-73
2021/01/10 02:12:02;;;;;;;49.80;19.98;;;;;;;4.59;82.70;101294.03;8775015;33;20183;-71
2021/01/10 02:17:06;;;;;;;56.60;20.27;;;;;;;4.58;82.04;101289.66;8775284;33;20269;-73
2021/01/10 02:22:11;;;;;;;60.42;20.85;;;;;;;4.52;81.78;101281.00;8774825;33;20183;-73
2021/01/10 02:27:16;;;;;;;57.88;21.25;;;;;;;4.49;82.19;101281.94;8775011;33;20461;-70
2021/01/10 02:32:20;;;;;;;61.03;20.20;;;;;;;4.49;82.16;101279.31;8774303;33;20792;-72
2021/01/10 02:37:59;;;;;;;58.93;21.00;;;;;;;4.61;82.11;101281.63;8774372;33;20195;-72
2021/01/10 02:43:10;;;;;;;63.70;22.48;;;;;;;4.62;82.25;101283.34;8774222;33;20507;-72
2021/01/10 02:48:13;;;;;;;70.22;22.23;;;;;;;4.68;82.36;101280.53;8774496;33;20175;-72
2021/01/10 02:53:16;;;;;;;62.40;22.60;;;;;;;4.71;82.11;101281.34;8773850;33;20559;-72
2021/01/10 02:58:23;;;;;;;61.53;21.10;;;;;;;4.72;82.19;101275.13;8773918;33;20782;-72
2021/01/10 03:03:29;;;;;;;63.30;21.88;;;;;;;4.73;82.38;101275.09;8776512;33;20253;-72
2021/01/10 03:08:32;;;;;;;69.25;20.63;;;;;;;4.68;82.13;101282.31;8779077;33;20191;-72
2021/01/10 03:13:36;;;;;;;53.47;21.80;;;;;;;4.64;82.10;101276.25;8778440;33;20506;-72
2021/01/10 03:18:39;;;;;;;57.15;21.05;;;;;;;4.77;82.35;101275.88;8778580;33;20213;-72
2021/01/10 03:23:41;;;;;;;77.13;23.52;;;;;;;4.81;82.48;101272.25;8778255;33;20316;-72
2021/01/10 03:28:45;;;;;;;62.92;21.92;;;;;;;4.74;82.11;101270.69;8778256;33;20296;-72
2021/01/10 03:33:47;;;;;;;58.83;20.92;;;;;;;4.73;82.10;101264.53;8778094;33;20244;-72
2021/01/10 03:38:49;;;;;;;59.60;20.27;;;;;;;4.69;81.94;101265.53;8778371;33;20225;-72
2021/01/10 03:43:52;;;;;;;60.45;19.60;;;;;;;4.41;81.87;101263.63;8777712;33;20298;-71
2021/01/10 03:48:55;;;;;;;48.67;19.40;;;;;;;4.54;81.72;101253.56;8778231;33;21040;-71
2021/01/10 03:53:57;;;;;;;46.58;18.83;;;;;;;4.63;82.33;101253.31;8776776;33;20567;-72
2021/01/10 03:59:00;;;;;;;50.78;19.95;;;;;;;4.40;81.76;101256.59;8777501;33;20225;-71
2021/01/10 04:04:03;;;;;;;50.77;19.40;;;;;;;4.54;81.98;101247.41;8777145;33;20594;-73
2021/01/10 04:09:06;;;;;;;49.17;18.75;;;;;;;4.53;81.65;101256.28;8777699;33;20196;-72
2021/01/10 04:14:09;;;;;;;53.45;18.35;;;;;;;4.49;81.40;101254.63;8776905;33;20207;-72
2021/01/10 04:19:11;;;;;;;42.08;17.10;;;;;;;4.51;81.66;101247.50;8776955;33;20205;-72
2021/01/10 04:24:13;;;;;;;51.43;19.37;;;;;;;4.53;81.63;101251.84;8776692;33;20181;-72
2021/01/10 04:29:19;;;;;;;42.92;17.27;;;;;;;4.53;81.46;101248.34;8777165;33;21317;-71
2021/01/10 04:34:21;;;;;;;39.20;17.73;;;;;;;4.50;81.46;101246.66;8776644;33;20190;-73
2021/01/10 04:39:24;;;;;;;43.30;17.33;;;;;;;4.50;81.62;101238.72;8776032;33;20174;-73
2021/01/10 04:44:27;;;;;;;42.28;17.15;;;;;;;4.57;81.62;101242.91;8776337;33;20266;-72
2021/01/10 04:49:30;;;;;;;44.85;17.45;;;;;;;4.55;81.51;101254.44;8776429;33;20264;-72
2021/01/10 04:54:40;;;;;;;40.72;18.23;;;;;;;4.20;81.33;101237.78;8775996;33;20728;-72
2021/01/10 04:59:44;;;;;;;39.28;15.35;;;;;;;4.10;81.36;101246.84;8775854;33;20191;-72
2021/01/10 05:04:46;;;;;;;39.38;15.73;;;;;;;4.03;81.07;101247.91;8776070;33;20194;-72
2021/01/10 05:09:49;;;;;;;36.35;15.60;;;;;;;4.24;80.66;101250.84;8776536;33;20186;-71
2021/01/10 05:14:52;;;;;;;37.60;15.13;;;;;;;4.26;79.80;101236.75;8775732;33;20316;-71
2021/01/10 05:19:54;;;;;;;32.03;13.25;;;;;;;4.32;79.78;101249.78;8775026;33;20186;-72
2021/01/10 05:25:12;;;;;;;29.73;13.00;;;;;;;4.39;80.29;101244.31;8774749;33;20431;-72
2021/01/10 05:30:17;;;;;;;32.27;13.23;;;;;;;4.40;80.12;101238.09;8775016;33;20284;-72
2021/01/10 05:35:20;;;;;;;36.73;13.20;;;;;;;4.39;80.48;101244.31;8774699;33;20649;-72
2021/01/10 05:40:29;;;;;;;36.58;14.57;;;;;;;4.43;80.88;101251.22;8774805;33;20918;-72
2021/01/10 05:45:35;;;;;;;37.05;14.77;;;;;;;4.38;80.25;101253.13;8773684;33;20641;-72
2021/01/10 05:50:43;;;;;;;33.47;14.77;;;;;;;4.50;81.22;101257.25;8774405;33;20776;-72
2021/01/10 05:55:54;;;;;;;35.10;13.30;;;;;;;4.42;80.89;101261.88;8774607;33;20240;-72
2021/01/10 06:00:58;;;;;;;36.85;14.85;;;;;;;4.41;81.16;101263.63;8774509;33;20183;-72
2021/01/10 06:06:04;;;;;;;32.28;12.95;;;;;;;4.44;80.92;101263.56;8774947;33;20227;-72
2021/01/10 06:11:21;;;;;;;35.85;14.35;;;;;;;4.47;80.51;101262.63;8774845;33;20182;-72
2021/01/10 06:16:27;;;;;;;35.63;12.77;;;;;;;4.46;80.53;101267.00;8774768;33;20166;-72
2021/01/10 06:21:32;;;;;;;32.53;13.50;;;;;;;4.45;80.95;101269.72;8774378;33;20178;-72
2021/01/10 06:26:35;;;;;;;29.83;12.25;;;;;;;4.46;80.53;101267.00;8774185;33;21567;-72
2021/01/10 06:31:39;;;;;;;27.50;11.48;;;;;;;4.42;80.41;101265.38;8773631;33;20157;-72
2021/01/10 06:36:43;;;;;;;32.35;12.35;;;;;;;4.30;80.49;101270.13;8775832;33;20459;-72
2021/01/10 06:42:11;;;;;;;27.77;11.82;;;;;;;4.30;80.38;101275.41;8779721;33;20186;-72
2021/01/10 06:47:21;;;;;;;23.65;11.60;;;;;;;4.24;79.95;101285.25;8779306;33;20231;-72
2021/01/10 06:52:24;;;;;;;28.05;11.55;;;;;;;4.24;79.39;101264.09;8778900;33;20231;-71
2021/01/10 06:57:31;;;;;;;27.50;12.07;;;;;;;4.19;78.87;101267.75;8779188;33;20148;-72
2021/01/10 07:03:08;;;;;;;20.77;9.77;;;;;;;4.06;78.70;101266.34;8778708;33;20649;-72
2021/01/10 07:08:32;;;;;;;26.25;10.55;;;;;;;4.03;78.15;101267.28;8779178;33;20155;-72
2021/01/10 07:13:35;;;;;;;23.93;9.10;;;;;;;4.07;76.96;101263.66;8778148;33;20264;-72
2021/01/10 07:18:49;;;;;;;26.60;9.63;;;;;;;4.12;76.51;101264.41;8778705;33;20187;-72
2021/01/10 07:23:52;;;;;;;20.48;9.38;;;;;;;4.13;77.27;101270.56;8778461;33;21624;-72
2021/01/10 07:28:54;;;;;;;21.63;10.48;;;;;;;4.06;77.47;101274.28;8777075;33;20190;-72
2021/01/10 07:34:12;;;;;;;16.63;8.47;;;;;;;4.07;77.22;101274.25;8777487;33;20234;-72
2021/01/10 07:39:16;;;;;;;27.90;10.63;;;;;;;4.16;76.73;101276.63;8778318;33;20230;-72
2021/01/10 07:44:18;;;;;;;26.43;10.83;;;;;;;4.15;76.46;101269.63;8777965;33;20152;-72
2021/01/10 07:49:24;;;;;;;25.63;10.10;;;;;;;4.17;76.97;101275.75;8776946;33;20230;-72
2021/01/10 07:54:50;;;;;;;21.83;10.47;;;;;;;4.14;76.59;101283.78;8777672;33;20277;-71
2021/01/10 08:00:22;;;;;;;25.87;10.57;;;;;;;4.22;76.00;101288.84;8777378;33;20151;-71
2021/01/10 08:05:32;;;;;;;31.30;11.43;;;;;;;4.19;76.83;101286.28;8757877;33;20275;-71
2021/01/10 08:10:46;;;;;;;27.90;12.37;;;;;;;4.20;76.99;101283.59;8712143;33;20191;-71
2021/01/10 08:15:49;;;;;;;31.13;12.57;;;;;;;4.24;76.94;101295.81;8717506;33;20471;-71
2021/01/10 08:20:53;;;;;;;27.83;12.20;;;;;;;4.30;76.77;101300.09;8717375;33;20776;-71
2021/01/10 08:26:05;;;;;;;35.95;14.05;;;;;;;4.34;77.13;101298.25;8717765;33;21075;-71
2021/01/10 08:31:10;;;;;;;36.72;13.35;;;;;;;4.50;77.17;101299.59;8717503;33;20191;-71
2021/01/10 08:36:18;;;;;;;32.83;14.27;;;;;;;4.62;76.98;101298.38;8717420;33;20269;-72
2021/01/10 08:41:23;;;;;;;33.80;14.20;;;;;;;4.67;77.16;101304.41;8717344;33;20191;-71
2021/01/10 08:46:28;;;;;;;31.27;14.73;;;;;;;4.76;77.39;101296.19;8717722;33;20179;-71
2021/01/10 08:51:35;;;;;;;39.45;14.73;;;;;;;4.78;77.67;101312.91;8716851;33;20777;-71
2021/01/10 08:56:39;;;;;;;34.05;14.98;;;;;;;4.78;77.85;101314.69;8716983;33;20128;-72
2021/01/10 09:01:41;;;;;;;12.10;5.53;;;;;;;4.83;78.04;101331.34;8715823;33;20159;-72
2021/01/10 09:07:05;;;;;;;35.03;14.32;;;;;;;4.85;77.14;101319.78;8715720;33;22056;-71
2021/01/10 09:12:18;;;;;;;40.47;15.27;;;;;;;4.89;77.01;101326.72;8716271;33;20459;-72
2021/01/10 09:17:27;;;;;;;35.33;15.45;;;;;;;4.99;77.32;101318.50;8723834;33;20517;-72
2021/01/10 09:22:34;;;;;;;31.42;14.88;;;;;;;5.08;76.61;101319.13;8704117;33;21091;-72
2021/01/10 09:27:38;;;;;;;36.67;15.23;;;;;;;5.03;76.42;101326.31;8716516;33;20692;-72
2021/01/10 09:32:40;;;;;;;30.75;14.27;;;;;;;4.91;76.27;101324.03;8715745;33;20304;-72
2021/01/10 09:37:44;;;;;;;35.17;15.30;;;;;;;5.09;75.77;101322.63;8716528;33;20654;-72
2021/01/10 09:42:49;;;;;;;32.80;14.63;;;;;;;5.29;75.85;101316.72;8716184;33;20700;-72
2021/01/10 09:47:53;;;;;;;37.67;15.43;;;;;;;5.06;75.87;101320.06;8716424;33;20183;-72
2021/01/10 09:52:56;;;;;;;32.53;14.27;;;;;;;5.16;75.92;101315.38;8717426;33;20275;-72
2021/01/10 09:57:58;;;;;;;35.85;14.23;;;;;;;5.23;75.07;101307.19;8718184;33;20198;-72
2021/01/10 10:03:09;;;;;;;30.60;14.48;;;;;;;5.31;75.18;101306.97;8718166;33;20186;-71
2021/01/10 10:08:13;;;;;;;34.95;13.02;;;;;;;5.43;74.25;101306.59;8714568;33;20753;-72
2021/01/10 10:13:24;;;;;;;30.58;12.43;;;;;;;5.32;74.51;101298.97;8714561;33;20179;-72
2021/01/10 10:18:28;;;;;;;29.23;14.23;;;;;;;5.45;74.57;101302.09;8714967;33;21833;-72
2021/01/10 10:23:32;;;;;;;22.75;10.90;;;;;;;5.57;73.77;101299.09;8714486;33;20233;-71
2021/01/10 10:28:35;;;;;;;32.78;13.40;;;;;;;5.58;73.83;101290.19;8714664;33;20183;-72
2021/01/10 10:33:37;;;;;;;29.40;12.85;;;;;;;5.40;73.48;101288.13;8714363;33;20214;-71
2021/01/10 10:38:41;;;;;;;24.35;11.25;;;;;;;5.39;73.40;101281.09;8714794;33;20853;-72
2021/01/10 10:43:43;;;;;;;25.05;11.07;;;;;;;5.36;74.45;101291.78;8714580;33;20148;-72
2021/01/10 10:48:45;;;;;;;24.35;11.57;;;;;;;5.42;73.52;101275.69;8715393;33;21605;-72
2021/01/10 10:53:48;;;;;;;22.98;11.68;;;;;;;5.42;73.00;101288.94;8714091;33;20300;-71
2021/01/10 10:58:50;;;;;;;26.45;11.93;;;;;;;5.59;73.13;101285.75;8714717;33;20196;-72
2021/01/10 11:03:53;;;;;;;29.88;12.48;;;;;;;5.60;73.87;101279.56;8715049;33;20996;-72
2021/01/10 11:08:56;;;;;;;19.20;8.38;;;;;;;5.34;73.78;101288.31;8713637;33;20152;-72
2021/01/10 11:13:58;;;;;;;10.57;5.28;;;;;;;5.09;74.01;101291.69;8712129;33;20278;-71
2021/01/10 11:19:01;;;;;;;14.73;7.97;;;;;;;5.37;73.22;101272.31;8714549;33;21052;-72
2021/01/10 11:24:06;;;;;;;13.32;8.05;;;;;;;5.43;72.30;101277.44;8716693;33;20187;-72
2021/01/10 11:29:09;;;;;;;12.88;6.38;;;;;;;5.53;72.56;101267.41;8694981;33;20738;-71
2021/01/10 11:34:13;;;;;;;14.18;7.10;;;;;;;5.57;72.99;101271.72;8718578;33;20266;-71
2021/01/10 11:39:18;;;;;;;16.80;6.65;;;;;;;5.20;74.06;101270.19;8719261;33;20198;-71
2021/01/10 11:44:24;;;;;;;13.38;7.22;;;;;;;5.60;72.78;101262.78;8716825;33;20192;-71
2021/01/10 11:49:28;;;;;;;16.00;8.55;;;;;;;5.54;72.91;101258.56;8726534;33;20202;-71
2021/01/10 11:54:31;;;;;;;16.30;8.90;;;;;;;5.54;72.50;101250.59;8720008;33;20214;-71
2021/01/10 11:59:35;;;;;;;18.55;9.15;;;;;;;5.69;72.83;101254.53;8726398;33;20588;-73
2021/01/10 12:04:37;;;;;;;16.98;9.25;;;;;;;5.79;71.79;101238.25;8718682;33;20183;-70
2021/01/10 12:09:40;;;;;;;23.30;8.63;;;;;;;6.07;71.86;101241.81;8717020;33;20187;-72
2021/01/10 12:14:43;;;;;;;17.58;8.98;;;;;;;5.85;71.33;101228.38;8718977;33;20415;-72
2021/01/10 12:19:45;;;;;;;18.55;9.32;;;;;;;6.04;70.68;101221.56;8716618;33;20224;-72
2021/01/10 12:24:49;;;;;;;22.40;10.90;;;;;;;6.31;70.43;101221.47;8717436;33;20179;-72
2021/01/10 12:29:51;;;;;;;25.50;10.50;;;;;;;6.34;70.19;101230.22;8716502;33;20349;-72
2021/01/10 12:34:53;;;;;;;10.13;5.95;;;;;;;6.13;69.92;101225.66;8706188;33;20227;-72
2021/01/10 12:39:57;;;;;;;19.30;9.67;;;;;;;6.27;70.62;101222.53;8715589;33;20472;-73
2021/01/10 12:45:00;;;;;;;20.98;9.15;;;;;;;6.17;69.52;101222.88;8717490;33;20748;-72
2021/01/10 12:50:04;;;;;;;26.85;11.98;;;;;;;6.08;70.89;101214.34;8716781;33;20481;-72
2021/01/10 12:55:09;;;;;;;24.75;11.95;;;;;;;6.14;70.25;101217.66;8716185;33;20180;-72
2021/01/10 13:00:14;;;;;;;26.33;12.75;;;;;;;6.16;70.76;101214.94;8712942;33;20631;-70
2021/01/10 13:05:16;;;;;;;30.52;13.32;;;;;;;6.17;70.02;101214.91;8714845;33;20273;-71
2021/01/10 13:10:22;;;;;;;27.42;11.90;;;;;;;6.22;69.66;101209.41;8712190;33;20197;-71
2021/01/10 13:15:24;;;;;;;30.70;12.23;;;;;;;6.19;69.81;101205.06;8727066;33;21127;-70
2021/01/10 13:20:27;;;;;;;31.50;13.23;;;;;;;6.10;69.90;101205.41;8774925;33;20186;-70
2021/01/10 13:25:30;;;;;;;29.88;14.13;;;;;;;6.36;69.57;101204.50;8766575;33;20188;-72
2021/01/10 13:30:34;;;;;;;35.83;14.85;;;;;;;6.36;68.69;101203.59;8717258;33;21054;-72
2021/01/10 13:35:36;;;;;;;37.53;15.02;;;;;;;6.98;67.18;101199.53;8716482;33;20279;-71
2021/01/10 13:40:40;;;;;;;35.00;16.42;;;;;;;6.78;66.80;101187.88;8716028;33;21049;-72
2021/01/10 13:45:42;;;;;;;38.45;16.02;;;;;;;6.81;67.60;101197.53;8716277;33;20155;-72
2021/01/10 13:50:45;;;;;;;39.08;16.35;;;;;;;6.80;67.77;101195.78;8703952;33;20195;-72
2021/01/10 13:55:48;;;;;;;38.38;15.82;;;;;;;6.44;68.28;101196.22;8715917;33;20183;-71
2021/01/10 14:00:51;;;;;;;38.92;16.60;;;;;;;6.13;69.58;101194.69;8711495;33;20449;-71
2021/01/10 14:05:54;;;;;;;33.95;15.25;;;;;;;6.25;68.87;101190.72;8714029;33;20179;-71
2021/01/10 14:10:58;;;;;;;35.05;14.38;;;;;;;6.13;69.53;101197.34;8716409;33;21073;-71
2021/01/10 14:16:04;;;;;;;42.75;17.48;;;;;;;6.07;70.19;101191.41;8716255;33;20816;-71
2021/01/10 14:21:07;;;;;;;35.53;15.63;;;;;;;5.86;70.31;101191.19;8715750;33;20235;-72
2021/01/10 14:26:10;;;;;;;40.83;16.05;;;;;;;5.88;70.82;101185.84;8715980;33;20650;-72
2021/01/10 14:31:12;;;;;;;35.88;14.70;;;;;;;6.10;70.37;101181.53;8714816;33;20230;-72
2021/01/10 14:36:15;;;;;;;34.75;14.00;;;;;;;5.91;70.52;101168.00;8717670;33;20648;-72
2021/01/10 14:41:27;;;;;;;39.25;16.10;;;;;;;5.90;70.98;101168.94;8716898;33;20191;-72
2021/01/10 14:46:30;;;;;;;34.08;11.43;;;;;;;5.78;71.34;101172.00;8716610;33;20764;-72
2021/01/10 14:51:32;;;;;;;32.35;14.48;;;;;;;5.82;71.53;101172.78;8713718;33;20184;-70
2021/01/10 14:56:39;;;;;;;32.60;13.82;;;;;;;5.66;72.28;101170.66;8716071;33;20437;-71
2021/01/10 15:01:42;;;;;;;26.92;13.43;;;;;;;5.65;72.56;101163.63;8720381;33;20211;-72
2021/01/10 15:06:45;;;;;;;42.22;14.57;;;;;;;5.77;72.46;101168.50;8720608;33;20184;-72
2021/01/10 15:11:48;;;;;;;28.55;13.38;;;;;;;5.88;72.43;101170.78;8719444;33;20180;-71
2021/01/10 15:16:51;;;;;;;36.95;14.75;;;;;;;5.74;72.13;101154.50;8720145;33;20546;-70
2021/01/10 15:21:54;;;;;;;26.52;12.98;;;;;;;5.56;72.93;101167.44;8720128;33;20162;-72
2021/01/10 15:26:57;;;;;;;38.10;16.02;;;;;;;5.44;73.54;101169.66;8720355;33;20172;-72
2021/01/10 15:32:01;;;;;;;31.67;12.02;;;;;;;5.44;73.69;101165.19;8719299;33;20781;-70
2021/01/10 15:37:04;;;;;;;27.02;12.30;;;;;;;5.44;73.58;101157.25;8719662;33;20425;-72
2021/01/10 15:42:10;;;;;;;28.60;11.50;;;;;;;5.43;73.17;101157.28;8718934;33;20188;-71
2021/01/10 15:47:12;;;;;;;27.10;13.20;;;;;;;5.46;73.07;101165.16;8719056;33;20199;-71
2021/01/10 15:52:15;;;;;;;26.40;12.23;;;;;;;5.32;73.12;101176.19;8717979;33;20188;-72
2021/01/10 15:57:18;;;;;;;29.55;12.27;;;;;;;5.20;73.04;101172.16;8719803;33;20208;-71
2021/01/10 16:02:20;;;;;;;25.45;11.13;;;;;;;5.14;73.22;101172.38;8717495;33;20203;-72
2021/01/10 16:07:23;;;;;;;23.10;10.10;;;;;;;4.98;73.39;101171.97;8719533;33;20196;-72
2021/01/10 16:12:27;;;;;;;30.95;11.57;;;;;;;5.07;72.95;101169.06;8717286;33;20282;-72
2021/01/10 16:17:31;;;;;;;23.27;10.40;;;;;;;5.01;72.93;101168.38;8710193;33;20562;-72
2021/01/10 16:22:33;;;;;;;17.15;9.10;;;;;;;4.92;73.14;101169.53;8735948;33;20255;-72
2021/01/10 16:27:37;;;;;;;27.00;11.43;;;;;;;4.89;73.05;101177.56;8716412;33;20455;-72
2021/01/10 16:32:39;;;;;;;28.37;12.03;;;;;;;4.78;73.46;101175.25;8717232;33;20214;-72
2021/01/10 16:38:01;;;;;;;23.52;10.48;;;;;;;4.93;73.40;101189.78;8713667;33;20155;-72
2021/01/10 16:43:06;;;;;;;30.85;10.90;;;;;;;5.05;72.77;101184.13;8687154;33;20271;-71
2021/01/10 16:48:12;;;;;;;21.90;10.48;;;;;;;5.10;72.74;101189.25;8704069;33;20784;-71
2021/01/10 16:53:14;;;;;;;24.95;10.63;;;;;;;5.09;72.84;101183.09;8721024;33;20309;-71
2021/01/10 16:58:18;;;;;;;23.13;12.68;;;;;;;4.98;73.03;101173.75;8721366;33;20133;-71
2021/01/10 17:03:20;;;;;;;25.10;12.48;;;;;;;4.84;73.42;101174.19;8704729;33;20178;-71
2021/01/10 17:08:25;;;;;;;23.42;12.52;;;;;;;4.78;73.66;101172.59;8712367;33;20544;-71
2021/01/10 17:13:28;;;;;;;28.43;12.97;;;;;;;4.67;73.96;101178.22;8746276;33;20335;-72
2021/01/10 17:18:32;;;;;;;31.43;13.50;;;;;;;4.70;73.76;101176.38;8715687;33;20294;-73
2021/01/10 17:23:34;;;;;;;20.23;10.53;;;;;;;4.74;73.56;101172.72;8711616;33;20302;-72
2021/01/10 17:28:37;;;;;;;18.33;8.67;;;;;;;4.44;74.08;101170.94;8712390;33;20202;-72
2021/01/10 17:33:40;;;;;;;26.73;12.13;;;;;;;4.70;73.66;101168.44;8708896;33;20136;-73
2021/01/10 17:38:42;;;;;;;26.13;11.67;;;;;;;4.53;74.02;101167.16;8745448;33;20172;-72
2021/01/10 17:43:46;;;;;;;21.40;9.87;;;;;;;4.52;74.25;101162.75;8718938;33;20694;-71
2021/01/10 17:48:51;;;;;;;16.75;7.15;;;;;;;4.44;74.26;101162.13;8715712;33;20453;-72
2021/01/10 17:53:54;;;;;;;23.23;11.48;;;;;;;4.37;74.92;101158.81;8716029;33;20454;-72
2021/01/10 17:58:57;;;;;;;25.20;10.87;;;;;;;4.40;74.63;101156.06;8715240;33;20186;-72
2021/01/10 18:04:04;;;;;;;23.70;9.88;;;;;;;4.49;73.84;101160.22;8715822;33;20970;-72
2021/01/10 18:09:06;;;;;;;21.47;9.23;;;;;;;4.32;74.03;101160.72;8715952;33;20275;-72
2021/01/10 18:14:10;;;;;;;25.97;10.83;;;;;;;4.48;73.90;101171.72;8715464;33;20379;-72
2021/01/10 18:19:14;;;;;;;25.87;10.60;;;;;;;4.57;73.82;101166.16;8715994;33;20198;-72
2021/01/10 18:24:19;;;;;;;28.47;10.27;;;;;;;4.41;74.21;101176.31;8714827;33;20667;-72
2021/01/10 18:29:22;;;;;;;28.63;11.50;;;;;;;4.43;74.55;101168.34;8694394;33;20191;-71
2021/01/10 18:34:25;;;;;;;22.60;9.20;;;;;;;4.38;74.77;101165.81;8719299;33;20538;-71
2021/01/10 18:39:29;;;;;;;21.00;9.23;;;;;;;4.27;75.04;101157.31;8715515;33;20209;-72
2021/01/10 18:44:33;;;;;;;24.70;10.27;;;;;;;4.14;75.56;101162.09;8702826;33;20530;-71
2021/01/10 18:49:37;;;;;;;27.88;11.85;;;;;;;4.36;75.03;101165.00;8714960;33;20184;-70
2021/01/10 18:54:40;;;;;;;25.67;9.93;;;;;;;4.41;74.34;101159.56;8714430;33;20726;-71
2021/01/10 18:59:47;;;;;;;18.83;8.17;;;;;;;4.13;74.93;101159.50;8714260;33;20192;-71
2021/01/10 19:04:49;;;;;;;28.53;12.83;;;;;;;4.32;74.28;101157.19;8702104;33;21005;-71
2021/01/10 19:09:52;;;;;;;27.77;12.47;;;;;;;4.32;73.94;101157.19;8714203;33;20144;-71
2021/01/10 19:14:55;;;;;;;27.17;12.40;;;;;;;4.40;73.98;101140.19;8714973;33;20188;-71
2021/01/10 19:19:58;;;;;;;29.57;13.70;;;;;;;4.25;74.69;101140.66;8714104;33;20389;-71
2021/01/10 19:25:00;;;;;;;12.33;6.87;;;;;;;4.17;74.61;101147.94;8715772;33;20689;-71
2021/01/10 19:30:09;;;;;;;31.57;13.70;;;;;;;4.40;74.26;101134.91;8716288;33;20187;-71
2021/01/10 19:35:13;;;;;;;29.33;12.03;;;;;;;4.27;74.45;101136.16;8718270;33;20474;-71
2021/01/10 19:40:15;;;;;;;28.57;13.17;;;;;;;4.27;74.55;101136.16;8714398;33;20198;-73
2021/01/10 19:45:19;;;;;;;10.70;6.13;;;;;;;4.13;74.56;101138.34;8696917;33;20465;-73
2021/01/10 19:50:22;;;;;;;31.07;14.10;;;;;;;4.22;74.28;101138.06;8717357;33;20274;-73
2021/01/10 19:55:24;;;;;;;25.90;12.30;;;;;;;4.36;73.53;101135.91;8690203;33;20334;-72
2021/01/10 20:00:28;;;;;;;24.57;9.60;;;;;;;3.99;74.73;101129.00;8659465;33;20920;-73
2021/01/10 20:05:30;;;;;;;22.57;9.50;;;;;;;3.99;74.34;101126.34;8660251;33;20258;-73
2021/01/10 20:10:33;;;;;;;38.97;15.03;;;;;;;4.24;73.62;101115.09;8681303;33;20689;-73
2021/01/10 20:15:36;;;;;;;28.87;10.83;;;;;;;4.04;73.84;101115.66;8713110;33;20200;-73
2021/01/10 20:20:39;;;;;;;20.93;8.60;;;;;;;3.96;74.48;101142.31;8717436;33;20548;-72
2021/01/10 20:25:45;;;;;;;39.00;14.90;;;;;;;4.10;74.32;101130.50;8715612;33;20767;-72
2021/01/10 20:30:49;;;;;;;24.80;10.30;;;;;;;4.21;73.08;101133.69;8716748;33;20507;-72
2021/01/10 20:35:51;;;;;;;16.53;8.80;;;;;;;3.90;73.39;101141.63;8716764;33;20148;-72
2021/01/10 20:40:54;;;;;;;35.50;13.80;;;;;;;4.35;72.91;101130.66;8716819;33;20544;-73
2021/01/10 20:46:00;;;;;;;26.87;10.53;;;;;;;3.83;73.99;101140.91;8680053;33;20259;-72
2021/01/10 20:51:03;;;;;;;29.37;12.80;;;;;;;4.19;73.26;101128.44;8657074;33;21017;-72
2021/01/10 20:56:07;;;;;;;27.37;12.90;;;;;;;3.90;73.79;101138.97;8664900;33;20191;-72
2021/01/10 21:01:10;;;;;;;34.80;16.60;;;;;;;3.92;73.98;101114.25;8717320;33;21012;-72
2021/01/10 21:06:14;;;;;;;29.03;14.33;;;;;;;3.94;73.60;101100.97;8717031;33;20194;-72
2021/01/10 21:11:21;;;;;;;33.47;12.10;;;;;;;3.88;73.51;101104.63;8716919;33;20449;-72
2021/01/10 21:16:26;;;;;;;35.40;15.20;;;;;;;4.06;73.36;101105.03;8716658;33;20128;-73
2021/01/10 21:21:39;;;;;;;28.13;13.83;;;;;;;4.09;73.22;101104.97;8716601;33;21807;-73
2021/01/10 21:26:43;;;;;;;31.00;11.90;;;;;;;4.05;73.32;101105.94;8716666;33;21376;-72
2021/01/10 21:31:52;;;;;;;35.20;15.60;;;;;;;4.20;73.01;101116.09;8713962;33;20187;-72
2021/01/10 21:36:54;;;;;;;27.70;13.63;;;;;;;3.99;73.86;101117.56;8714286;33;20189;-72
2021/01/10 21:41:57;;;;;;;28.10;12.00;;;;;;;3.95;74.08;101115.91;8701256;33;21007;-72
2021/01/10 21:47:00;;;;;;;26.77;12.77;;;;;;;3.65;75.43;101113.22;8715610;33;20243;-72
2021/01/10 21:52:03;;;;;;;16.30;7.87;;;;;;;3.54;75.78;101117.91;8715412;33;20191;-73
2021/01/10 21:57:06;;;;;;;18.20;9.07;;;;;;;3.53;76.07;101113.50;8746789;33;21123;-73
2021/01/10 22:02:09;;;;;;;25.57;12.03;;;;;;;3.55;75.97;101117.84;8745234;33;20182;-73
2021/01/10 22:07:11;;;;;;;17.07;8.90;;;;;;;3.60;76.16;101111.59;8716428;33;20238;-73
2021/01/10 22:12:14;;;;;;;21.10;8.90;;;;;;;3.59;76.11;101101.91;8714444;33;20214;-73
2021/01/10 22:17:18;;;;;;;19.97;10.03;;;;;;;3.74;76.14;101094.44;8713891;33;20179;-73
2021/01/10 22:22:22;;;;;;;25.03;12.13;;;;;;;3.86;75.57;101089.72;8715246;33;20952;-72
2021/01/10 22:27:25;;;;;;;34.93;15.63;;;;;;;3.81;75.72;101095.13;8714936;33;21170;-73
2021/01/10 22:32:28;;;;;;;21.37;11.20;;;;;;;3.69;76.19;101104.28;8724291;33;20249;-72
2021/01/10 22:37:30;;;;;;;36.70;15.10;;;;;;;3.71;76.20;101098.97;8719096;33;20724;-73
2021/01/10 22:42:33;;;;;;;28.47;13.17;;;;;;;3.74;75.78;101086.50;8703334;33;20691;-73
2021/01/10 22:47:36;;;;;;;38.70;18.10;;;;;;;3.87;75.54;101076.47;8729277;33;20199;-73
2021/01/10 22:52:40;;;;;;;47.83;17.30;;;;;;;3.96;75.35;101072.72;8721715;33;20253;-72
2021/01/10 22:57:42;;;;;;;33.63;15.80;;;;;;;3.95;75.42;101076.25;8722289;33;20648;-73
2021/01/10 23:02:45;;;;;;;24.70;13.83;;;;;;;3.84;75.74;101070.38;8771907;33;20187;-72
2021/01/10 23:07:48;;;;;;;29.57;14.57;;;;;;;3.95;75.13;101074.50;8773982;33;20190;-71
2021/01/10 23:12:50;;;;;;;31.03;14.47;;;;;;;3.78;76.11;101069.69;8772879;33;21496;-71
2021/01/10 23:17:54;;;;;;;36.93;13.80;;;;;;;3.73;76.41;101068.94;8773206;33;20162;-71
2021/01/10 23:22:56;;;;;;;37.77;14.73;;;;;;;3.79;75.98;101075.81;8778498;33;20868;-71